Startpagina
METAR-TAF:

METAR-TAF

Vliegvelden :

Vliegbasis Florennes

Florennes, België

breedte: 50-14N, lengte: 004-39E, hoogte: 279 m

Actueel weer

Dit bericht is 22 minuten geleden gemaakt, om 05:48 UTC
Wind 1 kt uit variabele richting
Temperatuur -3°C
Vochtigheid 80%
Druk 1025 hPa
Zicht: 7000 m

METAR: EBFS 070548Z AUTO VRB01KT 7000 BKN210/// M03/M06 Q1025 WHT

Tijdstip: 07:10 (06:10 UTC)

Verwachting

Dit bericht is 14 uur en het 29 minuten geleden gemaakt, om 15:41 UTC
Verwachting geldig van 06 om 19 UTC tot 07 om 07 UTC
Wind 6 kt uit het oosten
Zicht 10 km of meer
Weinig wolken op 30000 ft
Kans 40% :
Tijdelijke
van 07 om 03 UTC tot 07 om 07 UTC
Wind 3 kt uit variabele richting
Zicht: 3000 m
nevel

TAF: EBFS 061541Z 0619/0707 09006KT 9999 FEW300 PROB40 TEMPO 0703/0707 VRB03KT 3000 BR

Waarnemingen en weersverwachtingen van meer dan 4000 vliegvelden (METAR en TAF).

De beschikbare stations zijn de gele en rode punten op de kaart.

Ga met uw muis naar het station om de naam te zien.

Klik dan om waarnemingen en weersverwachtingen te zien.

kaart wijzigen: klik op de groene knoppen met een zwart kruis om in te zoomen, op de groene knop met een streepje om uit te zoomen of op de groene pijlen voor aangrenzende kaarten.


METAR-TAF: